createdAt,value
2019-03-04T00:04:21.103Z,7.26
2019-03-04T00:09:30.143Z,5.99
2019-03-04T00:14:39.354Z,5.93
2019-03-04T00:19:49.189Z,3.95
2019-03-04T00:24:58.362Z,3.29
2019-03-04T00:30:08.463Z,4.70
2019-03-04T00:35:07.554Z,4.73
2019-03-04T00:40:16.746Z,5.75
2019-03-04T00:45:26.154Z,5.97
2019-03-04T00:50:35.205Z,7.61
2019-03-04T00:55:44.306Z,5.67
2019-03-04T01:00:53.503Z,4.37
2019-03-04T01:06:03.466Z,4.76
2019-03-04T01:11:11.211Z,5.55
2019-03-04T01:16:20.350Z,5.17
2019-03-04T01:21:29.400Z,6.87
2019-03-04T01:26:38.506Z,6.22
2019-03-04T01:31:47.615Z,3.36
2019-03-04T01:36:56.763Z,6.47
2019-03-04T01:42:05.921Z,7.23
2019-03-04T01:47:15.141Z,5.03
2019-03-04T01:52:24.214Z,9.63
2019-03-04T01:57:33.357Z,3.99
2019-03-04T02:02:42.475Z,4.87
2019-03-04T02:07:51.578Z,4.07
2019-03-04T02:13:00.642Z,9.90
2019-03-04T02:18:09.990Z,4.39
2019-03-04T02:23:19.209Z,4.82
2019-03-04T02:28:28.363Z,5.75
2019-03-04T02:33:37.446Z,6.41
2019-03-04T02:38:46.780Z,5.98
2019-03-04T02:43:55.863Z,9.01
2019-03-04T02:49:05.030Z,6.97
2019-03-04T02:54:14.108Z,7.81
2019-03-04T02:59:23.550Z,7.17
2019-03-04T03:04:32.608Z,7.30
2019-03-04T03:09:41.776Z,7.01
2019-03-04T03:14:50.830Z,6.32
2019-03-04T03:20:00.037Z,6.97
2019-03-04T03:25:09.097Z,6.72
2019-03-04T03:30:18.276Z,8.70
2019-03-04T03:35:27.367Z,5.27
2019-03-04T03:40:36.495Z,5.06
2019-03-04T03:45:45.714Z,6.38
2019-03-04T03:50:54.784Z,6.41
2019-03-04T03:56:03.873Z,5.79
2019-03-04T04:01:13.156Z,6.18
2019-03-04T04:06:22.217Z,6.06
2019-03-04T04:11:31.347Z,3.56
2019-03-04T04:16:40.443Z,4.84
2019-03-04T04:21:50.548Z,6.63
2019-03-04T04:26:49.544Z,4.98
2019-03-04T04:31:59.012Z,4.72
2019-03-04T04:37:08.113Z,6.95
2019-03-04T04:42:17.270Z,6.16
2019-03-04T04:47:26.303Z,6.34
2019-03-04T04:52:35.454Z,4.97
2019-03-04T04:57:44.513Z,7.08
2019-03-04T05:02:53.639Z,8.12
2019-03-04T05:08:02.749Z,6.78
2019-03-04T05:13:11.942Z,6.25
2019-03-04T05:18:21.032Z,5.40
2019-03-04T05:23:30.139Z,9.03
2019-03-04T05:28:39.183Z,8.03
2019-03-04T05:33:48.415Z,9.30
2019-03-04T05:38:57.455Z,9.56
2019-03-04T05:44:06.590Z,5.85
2019-03-04T05:49:15.810Z,5.22
2019-03-04T05:54:25.111Z,6.23
2019-03-04T05:59:34.199Z,5.80
2019-03-04T06:04:43.366Z,6.61
2019-03-04T06:09:52.423Z,6.22
2019-03-04T06:15:01.538Z,5.04
2019-03-04T06:20:10.598Z,3.06
2019-03-04T06:25:19.785Z,4.24
2019-03-04T06:30:28.814Z,4.78
2019-03-04T06:35:37.995Z,5.41
2019-03-04T06:40:47.204Z,4.79
2019-03-04T06:45:56.331Z,7.48
2019-03-04T06:51:05.398Z,6.36
2019-03-04T06:56:14.514Z,2.07
2019-03-04T07:01:23.702Z,4.34
2019-03-04T07:06:32.950Z,5.49
2019-03-04T07:11:42.331Z,6.85
2019-03-04T07:16:51.455Z,6.45
2019-03-04T07:22:00.622Z,5.74
2019-03-04T07:27:09.775Z,6.34
2019-03-04T07:32:18.819Z,3.89
2019-03-04T07:37:27.950Z,4.53
2019-03-04T07:42:36.998Z,6.36
2019-03-04T07:47:46.181Z,5.53
2019-03-04T07:52:55.203Z,3.01
2019-03-04T07:58:04.311Z,5.59
2019-03-04T08:03:13.371Z,4.86
2019-03-04T08:08:22.458Z,4.14
2019-03-04T08:13:31.665Z,6.12
2019-03-04T08:18:40.840Z,7.96
2019-03-04T08:23:50.333Z,4.47
2019-03-04T08:28:59.566Z,5.86
2019-03-04T08:34:09.354Z,5.51
2019-03-04T08:39:17.382Z,3.96
2019-03-04T08:44:26.451Z,4.75
2019-03-04T08:49:35.590Z,4.43
2019-03-04T08:54:44.690Z,8.12
2019-03-04T08:59:54.243Z,5.38
2019-03-04T09:05:03.258Z,2.64
2019-03-04T09:10:12.612Z,4.59
2019-03-04T09:15:21.675Z,5.44
2019-03-04T09:20:30.806Z,6.34
2019-03-04T09:25:39.886Z,5.28
2019-03-04T09:30:49.009Z,7.20
2019-03-04T09:35:58.054Z,6.14
2019-03-04T09:41:07.166Z,4.56
2019-03-04T09:46:16.357Z,6.00
2019-03-04T09:51:26.498Z,7.94
2019-03-04T09:56:25.500Z,5.63
2019-03-04T10:01:34.750Z,5.28
2019-03-04T10:06:43.798Z,7.71
2019-03-04T10:11:52.991Z,4.47
2019-03-04T10:17:02.098Z,5.59
2019-03-04T10:22:11.190Z,4.12
2019-03-04T10:27:20.221Z,5.48
2019-03-04T10:32:29.430Z,4.48
2019-03-04T10:37:38.523Z,5.29
2019-03-04T10:42:47.694Z,3.26
2019-03-04T10:47:57.380Z,3.37
2019-03-04T10:53:06.453Z,3.97
2019-03-04T10:58:15.682Z,3.99
2019-03-04T11:03:24.822Z,2.06
2019-03-04T11:08:33.928Z,6.71
2019-03-04T11:13:43.379Z,4.20
2019-03-04T11:18:52.458Z,4.94
2019-03-04T11:24:01.580Z,4.91
2019-03-04T11:29:10.623Z,4.88
2019-03-04T11:34:19.965Z,2.58
2019-03-04T11:39:29.047Z,4.21
2019-03-04T11:44:38.183Z,5.83
2019-03-04T11:49:47.237Z,3.21
2019-03-04T11:54:56.374Z,6.76
2019-03-04T12:00:05.492Z,4.02
2019-03-04T12:05:14.574Z,4.86
2019-03-04T12:10:23.642Z,6.52
2019-03-04T12:15:32.767Z,8.80
2019-03-04T12:25:47.238Z,6.41
2019-03-04T12:30:56.262Z,6.20
2019-03-04T12:36:06.199Z,4.47
2019-03-04T12:41:15.325Z,4.40
2019-03-04T12:46:24.479Z,4.31
2019-03-04T12:51:33.535Z,6.55
2019-03-04T12:56:42.674Z,7.10
2019-03-04T13:01:52.263Z,5.54
2019-03-04T13:07:01.379Z,6.54
2019-03-04T13:12:10.439Z,5.10
2019-03-04T13:17:20.102Z,6.74
2019-03-04T13:22:29.166Z,7.41
2019-03-04T13:27:38.434Z,12.18
2019-03-04T13:32:47.522Z,6.75
2019-03-04T13:37:56.643Z,9.06
2019-03-04T13:43:05.833Z,6.38
2019-03-04T13:48:14.946Z,7.36
2019-03-04T13:53:24.139Z,12.79
2019-03-04T13:58:33.453Z,10.75
2019-03-04T14:03:42.558Z,11.61
2019-03-04T14:08:51.661Z,8.22
2019-03-04T14:14:02.043Z,7.14
2019-03-04T14:19:09.414Z,6.93
2019-03-04T14:24:18.463Z,8.83
2019-03-04T14:29:27.598Z,8.71
2019-03-04T14:34:36.695Z,8.62
2019-03-04T14:39:46.018Z,7.22
2019-03-04T14:44:55.111Z,9.09
2019-03-04T14:50:09.836Z,8.29
2019-03-04T14:55:13.044Z,7.09
2019-03-04T15:00:22.351Z,11.04
2019-03-04T15:05:31.438Z,5.25
2019-03-04T15:10:40.722Z,9.66
2019-03-04T15:15:49.775Z,12.62
2019-03-04T15:20:58.907Z,10.79
2019-03-04T15:26:08.086Z,12.57
2019-03-04T15:31:17.231Z,13.49
2019-03-04T15:36:26.298Z,12.16
2019-03-04T15:41:40.111Z,11.14
2019-03-04T15:46:44.019Z,14.55
2019-03-04T15:51:53.236Z,8.67
2019-03-04T15:57:02.282Z,8.63
2019-03-04T16:02:11.458Z,7.79
2019-03-04T16:07:20.517Z,6.68
2019-03-04T16:12:29.658Z,7.49
2019-03-04T16:17:38.698Z,7.09
2019-03-04T16:22:47.853Z,9.42
2019-03-04T16:27:57.049Z,7.27
2019-03-04T16:33:06.258Z,9.21
2019-03-04T16:38:15.275Z,10.44
2019-03-04T16:43:24.513Z,5.75
2019-03-04T16:48:33.573Z,5.74
2019-03-04T16:53:42.702Z,6.89
2019-03-04T16:58:51.778Z,6.08
2019-03-04T17:04:00.907Z,5.59
2019-03-04T17:09:10.259Z,8.15
2019-03-04T17:14:19.373Z,6.38
2019-03-04T17:19:28.432Z,5.58
2019-03-04T17:24:37.574Z,6.87
2019-03-04T17:29:46.625Z,7.35
2019-03-04T17:34:55.709Z,10.64
2019-03-04T17:40:04.753Z,6.99
2019-03-04T17:45:13.940Z,10.71
2019-03-04T17:50:23.037Z,11.18
2019-03-04T17:55:32.157Z,12.38
2019-03-04T18:00:41.194Z,9.40
2019-03-04T18:05:50.304Z,7.80
2019-03-04T18:10:59.362Z,10.69
2019-03-04T18:16:08.559Z,12.09
2019-03-04T18:21:17.641Z,10.57
2019-03-04T18:26:26.792Z,7.64
2019-03-04T18:31:35.799Z,6.90
2019-03-04T18:36:45.000Z,10.02
2019-03-04T18:41:54.045Z,9.66
2019-03-04T18:47:03.173Z,10.03
2019-03-04T18:52:12.243Z,10.92
2019-03-04T18:57:21.640Z,10.18
2019-03-04T19:02:30.699Z,7.98
2019-03-04T19:07:39.862Z,8.53
2019-03-04T19:12:48.938Z,5.47
2019-03-04T19:17:58.125Z,10.10
2019-03-04T19:23:07.305Z,6.30
2019-03-04T19:28:16.680Z,8.10
2019-03-04T19:33:25.699Z,10.79
2019-03-04T19:38:34.840Z,9.58
2019-03-04T19:43:43.915Z,15.16
2019-03-04T19:48:53.087Z,10.94
2019-03-04T19:54:02.133Z,8.27
2019-03-04T19:59:11.259Z,9.98
2019-03-04T20:04:20.316Z,6.48
2019-03-04T20:09:29.497Z,7.61
2019-03-04T20:14:38.554Z,8.79
2019-03-04T20:19:47.733Z,6.12
2019-03-04T20:24:56.795Z,7.91
2019-03-04T20:30:05.959Z,6.65
2019-03-04T20:35:15.032Z,3.84
2019-03-04T20:40:24.158Z,6.39
2019-03-04T20:45:33.338Z,9.39
2019-03-04T20:50:42.546Z,5.90
2019-03-04T20:55:51.589Z,3.67
2019-03-04T21:01:00.714Z,3.29
2019-03-04T21:06:09.800Z,4.70
2019-03-04T21:11:18.941Z,2.94
2019-03-04T21:16:28.565Z,5.40
2019-03-04T21:21:37.679Z,6.41
2019-03-04T21:26:46.723Z,3.98
2019-03-04T21:31:55.842Z,3.48
2019-03-04T21:37:04.887Z,3.59
2019-03-04T21:42:14.049Z,2.73
2019-03-04T21:47:23.287Z,2.22
2019-03-04T21:52:32.707Z,3.13
2019-03-04T21:57:41.673Z,0.58
2019-03-04T22:02:50.841Z,2.42
2019-03-04T22:08:00.175Z,2.29
2019-03-04T22:13:09.311Z,2.71
2019-03-04T22:18:18.361Z,0.74
2019-03-04T22:23:27.649Z,1.93
2019-03-04T22:28:36.674Z,1.45
2019-03-04T22:33:46.370Z,0.43
2019-03-04T22:38:55.479Z,1.19
2019-03-04T22:44:04.669Z,0.34
2019-03-04T22:49:13.732Z,0.71
2019-03-04T22:54:22.849Z,0.34
2019-03-04T22:59:31.948Z,0.87
2019-03-04T23:04:41.126Z,1.02
2019-03-04T23:09:50.342Z,1.04
2019-03-04T23:14:59.634Z,1.12
2019-03-04T23:20:08.714Z,1.17
2019-03-04T23:25:17.846Z,0.72
2019-03-04T23:30:26.935Z,2.35
2019-03-04T23:35:36.051Z,2.53
2019-03-04T23:40:45.128Z,3.68
2019-03-04T23:45:54.318Z,5.46
2019-03-04T23:51:03.401Z,4.09
2019-03-04T23:56:12.593Z,4.48
